createdAt,value
2017-11-14T00:01:50.597Z,40.87
2017-11-14T00:03:53.240Z,31.20
2017-11-14T00:05:55.949Z,37.93
2017-11-14T00:07:58.642Z,35.23
2017-11-14T00:10:01.296Z,39.37
2017-11-14T00:12:03.955Z,31.20
2017-11-14T00:14:06.635Z,26.37
2017-11-14T00:16:09.269Z,28.80
2017-11-14T00:18:11.926Z,23.47
2017-11-14T00:20:14.599Z,19.70
2017-11-14T00:22:17.286Z,31.93
2017-11-14T00:24:19.925Z,33.13
2017-11-14T00:26:22.599Z,32.77
2017-11-14T00:28:25.233Z,42.43
2017-11-14T00:30:28.736Z,40.93
2017-11-14T00:32:32.144Z,31.73
2017-11-14T00:34:34.798Z,35.13
2017-11-14T00:36:38.227Z,32.50
2017-11-14T00:38:40.880Z,34.00
2017-11-14T00:40:43.553Z,35.33
2017-11-14T00:42:46.213Z,48.93
2017-11-14T00:44:49.616Z,41.27
2017-11-14T00:46:52.295Z,30.03
2017-11-14T00:48:54.988Z,37.40
2017-11-14T00:50:57.655Z,36.53
2017-11-14T00:53:00.307Z,37.03
2017-11-14T00:55:03.749Z,35.77
2017-11-14T00:57:06.424Z,36.90
2017-11-14T00:59:09.075Z,37.40
2017-11-14T01:01:11.740Z,40.53
2017-11-14T01:03:14.401Z,30.20
2017-11-14T01:05:17.815Z,35.17
2017-11-14T01:07:20.543Z,33.27
2017-11-14T01:09:23.181Z,27.90
2017-11-14T01:11:25.878Z,33.50
2017-11-14T01:13:28.555Z,30.83
2017-11-14T01:15:31.211Z,27.10
2017-11-14T01:17:33.858Z,30.00
2017-11-14T01:19:36.511Z,16.27
2017-11-14T01:21:39.935Z,25.13
2017-11-14T01:23:42.580Z,24.40
2017-11-14T01:25:45.254Z,38.13
2017-11-14T01:27:48.644Z,30.00
2017-11-14T01:29:52.039Z,25.73
2017-11-14T01:31:55.459Z,27.80
2017-11-14T01:33:58.104Z,22.40
2017-11-14T01:36:01.558Z,26.17
2017-11-14T01:38:04.263Z,27.40
2017-11-14T01:40:07.706Z,23.77
2017-11-14T01:42:10.458Z,36.27
2017-11-14T01:44:13.144Z,46.17
2017-11-14T01:46:15.823Z,37.37
2017-11-14T01:48:18.510Z,28.93
2017-11-14T01:50:21.184Z,34.17
2017-11-14T01:52:23.882Z,40.73
2017-11-14T01:54:26.532Z,27.10
2017-11-14T01:56:29.201Z,31.67
2017-11-14T01:58:31.876Z,28.97
2017-11-14T02:00:46.366Z,29.00
2017-11-14T02:02:49.037Z,27.30
2017-11-14T02:04:51.739Z,31.10
2017-11-14T02:06:54.490Z,40.57
2017-11-14T02:08:57.201Z,36.90
2017-11-14T02:11:00.664Z,39.17
2017-11-14T02:13:03.340Z,35.40
2017-11-14T02:15:06.011Z,36.40
2017-11-14T02:17:08.752Z,34.17
2017-11-14T02:19:11.450Z,34.47
2017-11-14T02:21:14.158Z,45.50
2017-11-14T02:23:16.882Z,35.83
2017-11-14T02:25:19.568Z,33.90
2017-11-14T02:27:22.291Z,41.30
2017-11-14T02:29:24.962Z,28.60
2017-11-14T02:31:27.672Z,45.60
2017-11-14T02:33:30.358Z,33.00
2017-11-14T02:35:33.033Z,34.90
2017-11-14T02:37:35.763Z,43.00
2017-11-14T02:39:38.442Z,37.47
2017-11-14T02:41:41.132Z,38.03
2017-11-14T02:43:43.809Z,33.93
2017-11-14T02:45:46.552Z,39.03
2017-11-14T02:47:49.230Z,41.37
2017-11-14T02:49:51.982Z,34.87
2017-11-14T02:51:54.825Z,41.70
2017-11-14T02:53:57.518Z,35.73
2017-11-14T02:56:00.237Z,38.50
2017-11-14T02:58:02.939Z,52.17
2017-11-14T03:00:06.364Z,36.10
2017-11-14T03:02:09.056Z,35.37
2017-11-14T03:04:11.698Z,42.23
2017-11-14T03:06:14.363Z,31.80
2017-11-14T03:08:17.766Z,34.17
2017-11-14T03:10:20.422Z,44.60
2017-11-14T03:12:23.887Z,46.47
2017-11-14T03:14:26.613Z,30.67
2017-11-14T03:16:29.331Z,34.00
2017-11-14T03:18:32.024Z,34.03
2017-11-14T03:20:34.700Z,31.70
2017-11-14T03:22:37.375Z,33.73
2017-11-14T03:24:40.045Z,35.50
2017-11-14T03:26:42.743Z,30.03
2017-11-14T03:28:46.199Z,40.33
2017-11-14T03:30:48.881Z,35.63
2017-11-14T03:32:51.585Z,33.77
2017-11-14T03:34:55.019Z,25.93
2017-11-14T03:36:57.670Z,28.57
2017-11-14T03:39:02.297Z,30.10
2017-11-14T03:41:04.981Z,29.17
2017-11-14T03:43:07.640Z,26.60
2017-11-14T03:45:10.346Z,28.70
2017-11-14T03:47:13.010Z,27.50
2017-11-14T03:49:15.673Z,27.80
2017-11-14T03:51:18.423Z,23.33
2017-11-14T03:53:21.848Z,31.43
2017-11-14T03:55:24.487Z,25.97
2017-11-14T03:57:27.938Z,33.93
2017-11-14T03:59:30.596Z,31.27
2017-11-14T04:01:33.261Z,28.83
2017-11-14T04:03:35.965Z,30.83
2017-11-14T04:05:38.737Z,42.20
2017-11-14T04:07:41.375Z,34.37
2017-11-14T04:09:44.849Z,39.33
2017-11-14T04:11:47.555Z,38.00
2017-11-14T04:13:50.176Z,41.87
2017-11-14T04:15:52.857Z,38.77
2017-11-14T04:17:55.560Z,39.47
2017-11-14T04:19:58.971Z,42.27
2017-11-14T04:22:01.639Z,30.07
2017-11-14T04:24:05.049Z,41.47
2017-11-14T04:26:07.681Z,33.73
2017-11-14T04:28:10.354Z,38.70
2017-11-14T04:30:13.027Z,36.73
2017-11-14T04:32:15.668Z,34.53
2017-11-14T04:34:18.329Z,36.30
2017-11-14T04:36:20.994Z,31.67
2017-11-14T04:38:23.683Z,48.60
2017-11-14T04:40:26.349Z,43.97
2017-11-14T04:42:29.130Z,39.00
2017-11-14T04:44:31.794Z,39.73
2017-11-14T04:46:34.450Z,40.40
2017-11-14T04:48:37.850Z,43.83
2017-11-14T04:50:41.279Z,30.73
2017-11-14T04:52:43.923Z,42.70
2017-11-14T04:54:46.601Z,37.40
2017-11-14T04:56:49.294Z,38.67
2017-11-14T04:58:51.948Z,40.53
2017-11-14T05:00:54.617Z,38.90
2017-11-14T05:02:57.303Z,34.10
2017-11-14T05:04:59.975Z,42.27
2017-11-14T05:07:02.665Z,36.33
2017-11-14T05:09:05.318Z,31.20
2017-11-14T05:11:08.957Z,42.93
2017-11-14T05:13:11.643Z,29.80
2017-11-14T05:15:14.316Z,40.37
2017-11-14T05:17:17.026Z,45.07
2017-11-14T05:19:19.751Z,29.33
2017-11-14T05:21:22.448Z,32.20
2017-11-14T05:23:25.101Z,32.93
2017-11-14T05:25:27.764Z,37.20
2017-11-14T05:27:30.413Z,40.33
2017-11-14T05:29:33.848Z,34.07
2017-11-14T05:31:36.511Z,45.23
2017-11-14T05:33:39.221Z,34.37
2017-11-14T05:35:47.922Z,35.60
2017-11-14T05:37:58.260Z,39.90
2017-11-14T05:40:00.910Z,29.03
2017-11-14T05:42:03.647Z,29.63
2017-11-14T05:44:06.310Z,35.50
2017-11-14T05:46:08.979Z,27.37
2017-11-14T05:48:11.642Z,29.33
2017-11-14T05:50:14.265Z,43.67
2017-11-14T05:52:16.961Z,40.97
2017-11-14T05:54:19.642Z,34.80
2017-11-14T05:56:22.319Z,23.83
2017-11-14T05:58:24.974Z,32.57
2017-11-14T06:00:28.388Z,35.20
2017-11-14T06:02:31.173Z,30.53
2017-11-14T06:04:33.845Z,45.20
2017-11-14T06:06:36.522Z,31.73
2017-11-14T06:08:39.178Z,27.80
2017-11-14T06:10:42.701Z,37.03
2017-11-14T06:12:45.367Z,27.20
2017-11-14T06:14:48.026Z,35.23
2017-11-14T06:16:50.684Z,25.97
2017-11-14T06:18:54.109Z,28.23
2017-11-14T06:20:56.791Z,34.53
2017-11-14T06:22:59.464Z,28.70
2017-11-14T06:25:02.291Z,33.60
2017-11-14T06:27:04.957Z,34.83
2017-11-14T06:29:07.601Z,35.43
2017-11-14T06:31:10.278Z,28.70
2017-11-14T06:33:12.927Z,29.53
2017-11-14T06:35:15.561Z,33.57
2017-11-14T06:37:18.215Z,27.10
2017-11-14T06:39:20.873Z,32.90
2017-11-14T06:41:23.532Z,28.80
2017-11-14T06:43:26.169Z,34.30
2017-11-14T06:45:28.800Z,32.50
2017-11-14T06:47:31.469Z,32.77
2017-11-14T06:49:34.104Z,31.67
2017-11-14T06:51:37.544Z,38.87
2017-11-14T06:53:40.206Z,29.17
2017-11-14T06:55:42.855Z,30.00
2017-11-14T06:57:52.547Z,29.27
2017-11-14T06:59:55.195Z,34.60
2017-11-14T07:01:57.832Z,34.50
2017-11-14T07:04:01.283Z,36.17
2017-11-14T07:06:03.950Z,40.47
2017-11-14T07:08:06.580Z,34.00
2017-11-14T07:10:10.094Z,32.10
2017-11-14T07:12:12.763Z,32.37
2017-11-14T07:14:15.426Z,38.13
2017-11-14T07:16:18.863Z,29.23
2017-11-14T07:18:23.294Z,33.43
2017-11-14T07:20:26.061Z,32.00
2017-11-14T07:22:37.176Z,35.23
2017-11-14T07:24:39.998Z,46.03
2017-11-14T07:26:43.478Z,31.57
2017-11-14T07:28:47.122Z,37.70
2017-11-14T07:30:49.812Z,35.70
2017-11-14T07:32:52.524Z,37.30
2017-11-14T07:34:55.181Z,38.37
2017-11-14T07:36:58.613Z,32.90
2017-11-14T07:39:01.271Z,35.40
2017-11-14T07:41:03.941Z,32.17
2017-11-14T07:43:06.615Z,27.00
2017-11-14T07:45:09.261Z,22.80
2017-11-14T07:47:12.727Z,32.33
2017-11-14T07:49:15.421Z,31.07
2017-11-14T07:51:18.098Z,26.37
2017-11-14T07:53:20.779Z,28.10
2017-11-14T07:55:23.441Z,27.13
2017-11-14T07:57:26.147Z,25.17
2017-11-14T07:59:28.847Z,19.27
2017-11-14T08:01:31.544Z,29.63
2017-11-14T08:03:34.239Z,25.70
2017-11-14T08:05:36.896Z,27.27
2017-11-14T08:07:39.521Z,28.27
2017-11-14T08:09:42.962Z,26.03
2017-11-14T08:11:45.616Z,30.27
2017-11-14T08:13:48.288Z,20.80
2017-11-14T08:15:50.947Z,24.30
2017-11-14T08:17:53.627Z,21.33
2017-11-14T08:19:56.272Z,27.23
2017-11-14T08:21:58.932Z,22.80
2017-11-14T08:24:02.418Z,20.50
2017-11-14T08:26:05.077Z,23.97
2017-11-14T08:28:07.753Z,19.40
2017-11-14T08:30:10.409Z,31.10
2017-11-14T08:32:13.060Z,24.43
2017-11-14T08:34:16.497Z,25.50
2017-11-14T08:36:19.175Z,23.60
2017-11-14T08:38:21.813Z,23.70
2017-11-14T08:40:24.527Z,22.90
2017-11-14T08:42:27.173Z,28.20
2017-11-14T08:44:30.608Z,24.17
2017-11-14T08:46:33.290Z,20.80
2017-11-14T08:48:35.970Z,21.77
2017-11-14T08:50:38.611Z,23.40
2017-11-14T08:52:41.280Z,31.97
2017-11-14T08:54:43.944Z,29.83
2017-11-14T08:56:46.640Z,24.13
2017-11-14T08:58:49.370Z,25.13
2017-11-14T09:00:52.839Z,34.67
2017-11-14T09:02:55.607Z,27.60
2017-11-14T09:04:58.454Z,23.20
2017-11-14T09:07:01.196Z,21.57
2017-11-14T09:09:04.662Z,20.47
2017-11-14T09:11:07.382Z,19.90
2017-11-14T09:13:10.068Z,21.47
2017-11-14T09:15:12.776Z,22.30
2017-11-14T09:17:15.441Z,23.73
2017-11-14T09:19:18.180Z,22.70
2017-11-14T09:21:20.846Z,24.13
2017-11-14T09:23:24.302Z,17.73
2017-11-14T09:25:27.002Z,19.27
2017-11-14T09:27:30.467Z,21.20
2017-11-14T09:29:33.186Z,24.73
2017-11-14T09:31:36.638Z,24.87
2017-11-14T09:33:39.336Z,20.30
2017-11-14T09:35:42.768Z,21.93
2017-11-14T09:37:46.223Z,19.93
2017-11-14T09:39:48.922Z,21.33
2017-11-14T09:41:51.598Z,23.83
2017-11-14T09:43:54.302Z,22.13
2017-11-14T09:45:56.974Z,17.90
2017-11-14T09:47:59.679Z,23.63
2017-11-14T09:50:02.387Z,32.97
2017-11-14T09:52:05.819Z,23.00
2017-11-14T09:54:08.517Z,23.97
2017-11-14T09:56:11.237Z,27.57
2017-11-14T09:58:14.686Z,26.63
2017-11-14T10:00:17.389Z,27.40
2017-11-14T10:02:20.057Z,17.87
2017-11-14T10:04:22.781Z,19.60
2017-11-14T10:06:25.473Z,24.37
2017-11-14T10:08:28.153Z,21.00
2017-11-14T10:10:30.858Z,18.27
2017-11-14T10:12:33.559Z,18.53
2017-11-14T10:14:36.286Z,23.60
2017-11-14T10:16:38.976Z,24.57
2017-11-14T10:18:41.665Z,19.73
2017-11-14T10:20:45.142Z,22.33
2017-11-14T10:22:47.838Z,18.97
2017-11-14T10:24:50.541Z,25.43
2017-11-14T10:26:53.228Z,24.20
2017-11-14T10:28:55.960Z,22.10
2017-11-14T10:30:58.649Z,18.10
2017-11-14T10:33:02.094Z,16.80
2017-11-14T10:35:04.776Z,24.87
2017-11-14T10:37:07.446Z,16.73
2017-11-14T10:39:10.124Z,17.40
2017-11-14T10:41:12.835Z,17.83
2017-11-14T10:43:15.518Z,20.93
2017-11-14T10:45:18.998Z,20.03
2017-11-14T10:47:21.699Z,17.33
2017-11-14T10:49:25.170Z,25.23
2017-11-14T10:51:27.902Z,17.77
2017-11-14T10:53:30.580Z,16.53
2017-11-14T10:55:33.373Z,12.40
2017-11-14T10:57:36.081Z,18.00
2017-11-14T10:59:39.533Z,14.07
2017-11-14T11:01:42.202Z,21.70
2017-11-14T11:03:44.903Z,15.80
2017-11-14T11:05:47.591Z,18.60
2017-11-14T11:07:50.273Z,18.40
2017-11-14T11:09:52.971Z,22.20
2017-11-14T11:11:55.648Z,23.77
2017-11-14T11:13:59.104Z,25.63
2017-11-14T11:16:01.772Z,26.23
2017-11-14T11:18:04.519Z,21.07
2017-11-14T11:20:08.412Z,13.93
2017-11-14T11:22:11.084Z,18.67
2017-11-14T11:24:13.798Z,20.90
2017-11-14T11:26:16.530Z,23.10
2017-11-14T11:28:19.208Z,22.30
2017-11-14T11:30:21.909Z,23.73
2017-11-14T11:32:24.589Z,16.67
2017-11-14T11:34:27.280Z,23.20
2017-11-14T11:36:29.989Z,23.43
2017-11-14T11:38:32.690Z,21.70
2017-11-14T11:40:36.147Z,18.73
2017-11-14T11:42:38.841Z,19.93
2017-11-14T11:44:41.583Z,18.10
2017-11-14T11:46:44.259Z,19.63
2017-11-14T11:48:46.944Z,17.97
2017-11-14T11:50:49.682Z,17.00
2017-11-14T11:52:53.118Z,23.80
2017-11-14T11:54:55.834Z,17.70
2017-11-14T11:56:58.545Z,23.70
2017-11-14T11:59:01.259Z,20.57
2017-11-14T12:01:04.693Z,21.33
2017-11-14T12:03:08.172Z,17.93
2017-11-14T12:05:10.857Z,15.27
2017-11-14T12:07:13.543Z,22.93
2017-11-14T12:09:16.334Z,19.93
2017-11-14T12:11:19.263Z,20.03
2017-11-14T12:13:21.959Z,18.07
2017-11-14T12:15:24.679Z,18.50
2017-11-14T12:17:27.417Z,16.27
2017-11-14T12:19:30.101Z,21.47
2017-11-14T12:21:32.938Z,23.43
2017-11-14T12:23:36.381Z,18.13
2017-11-14T12:25:39.072Z,18.33
2017-11-14T12:27:41.805Z,18.27
2017-11-14T12:29:44.487Z,21.40
2017-11-14T12:31:47.192Z,28.73
2017-11-14T12:33:49.906Z,17.80
2017-11-14T12:35:53.337Z,22.53
2017-11-14T12:37:56.010Z,20.93
2017-11-14T12:39:58.806Z,19.07
2017-11-14T12:42:01.494Z,22.93
2017-11-14T12:44:04.137Z,18.97
2017-11-14T12:46:06.812Z,22.80
2017-11-14T12:48:09.477Z,19.00
2017-11-14T12:50:12.136Z,23.83
2017-11-14T12:52:14.804Z,24.60
2017-11-14T12:54:17.446Z,17.27
2017-11-14T12:56:20.110Z,21.73
2017-11-14T12:58:22.779Z,17.33
2017-11-14T13:00:25.466Z,21.27
2017-11-14T13:02:28.163Z,20.77
2017-11-14T13:04:30.859Z,23.27
2017-11-14T13:06:34.305Z,20.00
2017-11-14T13:08:36.999Z,12.93
2017-11-14T13:10:39.657Z,17.60
2017-11-14T13:12:42.367Z,24.50
2017-11-14T13:14:45.034Z,20.27
2017-11-14T13:16:47.760Z,22.73
2017-11-14T13:18:50.517Z,19.90
2017-11-14T13:20:53.927Z,22.27
2017-11-14T13:22:56.595Z,22.80
2017-11-14T13:24:59.238Z,16.17
2017-11-14T13:27:01.904Z,17.43
2017-11-14T13:29:04.583Z,30.93
2017-11-14T13:31:07.243Z,20.33
2017-11-14T13:33:09.938Z,28.30
2017-11-14T13:35:13.375Z,20.07
2017-11-14T13:37:16.064Z,24.90
2017-11-14T13:39:18.726Z,18.60
2017-11-14T13:41:21.357Z,18.47
2017-11-14T13:43:24.017Z,20.43
2017-11-14T13:45:26.661Z,17.17
2017-11-14T13:47:29.323Z,15.90
2017-11-14T13:49:31.980Z,19.93
2017-11-14T13:51:34.639Z,23.47
2017-11-14T13:53:38.081Z,17.33
2017-11-14T13:55:40.729Z,22.43
2017-11-14T13:57:43.408Z,14.47
2017-11-14T13:59:46.081Z,23.93
2017-11-14T14:01:48.710Z,21.67
2017-11-14T14:03:51.371Z,15.13
2017-11-14T14:05:54.013Z,23.00
2017-11-14T14:07:56.699Z,16.83
2017-11-14T14:09:59.359Z,17.23
2017-11-14T14:12:02.031Z,18.63
2017-11-14T14:14:04.706Z,17.87
2017-11-14T14:16:07.386Z,21.60
2017-11-14T14:18:10.066Z,20.37
2017-11-14T14:20:12.732Z,18.53
2017-11-14T14:22:15.438Z,16.43
2017-11-14T14:24:18.081Z,17.10
2017-11-14T14:26:20.724Z,16.87
2017-11-14T14:28:24.180Z,15.93
2017-11-14T14:30:26.812Z,14.97
2017-11-14T14:32:29.481Z,21.53
2017-11-14T14:34:32.898Z,15.13
2017-11-14T14:36:35.594Z,18.00
2017-11-14T14:38:38.252Z,17.40
2017-11-14T14:40:40.925Z,20.37
2017-11-14T14:42:43.599Z,24.73
2017-11-14T14:44:46.255Z,15.40
2017-11-14T14:46:48.922Z,18.67
2017-11-14T14:48:52.362Z,28.07
2017-11-14T14:50:55.019Z,18.57
2017-11-14T14:52:57.690Z,18.17
2017-11-14T14:55:00.365Z,20.73
2017-11-14T14:57:03.009Z,16.20
2017-11-14T14:59:06.458Z,20.57
2017-11-14T15:01:09.096Z,20.00
2017-11-14T15:03:11.770Z,19.00
2017-11-14T15:05:14.459Z,20.33
2017-11-14T15:07:17.100Z,27.77
2017-11-14T15:09:20.527Z,21.00
2017-11-14T15:11:23.165Z,17.77
2017-11-14T15:13:26.597Z,16.00
2017-11-14T15:15:29.232Z,16.77
2017-11-14T15:17:32.664Z,21.83
2017-11-14T15:19:35.323Z,21.77
2017-11-14T15:21:38.007Z,19.30
2017-11-14T15:23:40.692Z,13.70
2017-11-14T15:25:43.364Z,20.53
2017-11-14T15:27:46.090Z,17.37
2017-11-14T15:29:48.739Z,27.47
2017-11-14T15:31:51.401Z,20.03
2017-11-14T15:33:54.094Z,17.93
2017-11-14T15:35:56.750Z,19.63
2017-11-14T15:37:59.404Z,22.30
2017-11-14T15:40:02.096Z,21.13
2017-11-14T15:42:04.750Z,33.83
2017-11-14T15:44:07.409Z,20.17
2017-11-14T15:46:10.836Z,22.87
2017-11-14T15:48:13.490Z,23.30
2017-11-14T15:50:16.166Z,18.63
2017-11-14T15:52:18.836Z,16.60
2017-11-14T15:54:21.528Z,25.60
2017-11-14T15:56:24.216Z,17.93
2017-11-14T15:58:26.894Z,21.33
2017-11-14T16:00:29.547Z,16.90
2017-11-14T16:02:32.180Z,20.87
2017-11-14T16:04:34.870Z,21.90
2017-11-14T16:06:37.597Z,21.83
2017-11-14T16:08:40.317Z,14.77
2017-11-14T16:10:42.986Z,23.47
2017-11-14T16:12:46.431Z,19.03
2017-11-14T16:14:49.111Z,21.50
2017-11-14T16:16:51.794Z,30.40
2017-11-14T16:18:54.448Z,28.83
2017-11-14T16:20:57.156Z,18.17
2017-11-14T16:23:00.134Z,20.80
2017-11-14T16:25:02.812Z,18.33
2017-11-14T16:27:05.546Z,22.23
2017-11-14T16:29:08.211Z,15.67
2017-11-14T16:31:10.924Z,22.00
2017-11-14T16:33:13.647Z,17.27
2017-11-14T16:35:17.074Z,15.70
2017-11-14T16:37:20.246Z,18.27
2017-11-14T16:39:22.931Z,16.83
2017-11-14T16:41:25.621Z,32.13
2017-11-14T16:43:28.287Z,43.23
2017-11-14T16:45:31.006Z,24.10
2017-11-14T16:47:33.664Z,20.83
2017-11-14T16:49:36.362Z,30.33
2017-11-14T16:51:39.117Z,19.23
2017-11-14T16:53:41.962Z,12.50
2017-11-14T16:55:44.686Z,19.00
2017-11-14T16:57:47.327Z,15.80
2017-11-14T16:59:50.018Z,18.37
2017-11-14T17:01:52.705Z,22.23
2017-11-14T17:03:55.452Z,19.60
2017-11-14T17:05:58.137Z,23.00
2017-11-14T17:08:00.788Z,19.23
2017-11-14T17:10:03.484Z,15.40
2017-11-14T17:12:06.167Z,26.70
2017-11-14T17:14:08.842Z,13.03
2017-11-14T17:16:11.546Z,23.50
2017-11-14T17:18:14.205Z,19.70
2017-11-14T17:20:16.870Z,14.20
2017-11-14T17:22:19.528Z,22.90
2017-11-14T17:24:22.165Z,25.50
2017-11-14T17:26:24.891Z,16.80
2017-11-14T17:28:27.545Z,15.77
2017-11-14T17:30:30.216Z,15.80
2017-11-14T17:32:32.864Z,21.93
2017-11-14T17:34:35.584Z,20.50
2017-11-14T17:36:38.245Z,18.33
2017-11-14T17:38:52.769Z,19.63
2017-11-14T17:40:55.443Z,20.93
2017-11-14T17:42:58.149Z,17.53
2017-11-14T17:45:00.831Z,18.60
2017-11-14T17:47:03.520Z,14.50
2017-11-14T17:49:06.170Z,20.73
2017-11-14T17:51:08.846Z,23.27
2017-11-14T17:53:11.514Z,18.27
2017-11-14T17:55:14.950Z,17.87
2017-11-14T17:57:17.689Z,21.80
2017-11-14T17:59:20.362Z,19.47
2017-11-14T18:01:23.033Z,24.33
2017-11-14T18:03:25.834Z,18.30
2017-11-14T18:05:28.510Z,28.00
2017-11-14T18:07:31.159Z,16.97
2017-11-14T18:09:34.559Z,15.07
2017-11-14T18:11:37.220Z,19.13
2017-11-14T18:13:40.639Z,24.90
2017-11-14T18:15:43.317Z,22.90
2017-11-14T18:17:51.721Z,21.70
2017-11-14T18:19:54.364Z,22.83
2017-11-14T18:21:57.833Z,22.43
2017-11-14T18:24:00.462Z,28.03
2017-11-14T18:26:03.562Z,22.80
2017-11-14T18:28:06.296Z,20.27
2017-11-14T18:30:09.713Z,17.93
2017-11-14T18:32:14.763Z,21.73
2017-11-14T18:34:17.430Z,20.37
2017-11-14T18:36:21.678Z,20.70
2017-11-14T18:38:24.494Z,28.00
2017-11-14T18:40:32.186Z,38.27
2017-11-14T18:42:43.366Z,22.27
2017-11-14T18:44:47.861Z,28.03
2017-11-14T18:46:50.617Z,28.63
2017-11-14T18:48:53.272Z,39.73
2017-11-14T18:50:56.041Z,44.63
2017-11-14T18:52:58.796Z,47.37
2017-11-14T18:55:01.424Z,98.43
2017-11-14T18:57:04.157Z,54.33
2017-11-14T18:59:06.912Z,41.37
2017-11-14T19:01:11.588Z,49.63
2017-11-14T19:03:15.415Z,26.57
2017-11-14T19:05:18.165Z,31.90
2017-11-14T19:07:21.976Z,30.87
2017-11-14T19:09:24.727Z,29.83
2017-11-14T19:11:27.419Z,48.27
2017-11-14T19:13:38.315Z,26.97
2017-11-14T19:15:42.300Z,33.70
2017-11-14T19:17:44.959Z,45.70
2017-11-14T19:19:47.722Z,31.23
2017-11-14T19:21:50.423Z,38.07
2017-11-14T19:23:53.076Z,32.83
2017-11-14T19:25:55.788Z,31.40
2017-11-14T19:27:58.445Z,27.80
2017-11-14T19:30:01.086Z,32.57
2017-11-14T19:32:06.725Z,37.80
2017-11-14T19:34:09.387Z,30.13
2017-11-14T19:36:12.073Z,35.53
2017-11-14T19:38:17.399Z,41.30
2017-11-14T19:40:20.097Z,28.80
2017-11-14T19:42:22.803Z,20.43
2017-11-14T19:44:25.903Z,30.60
2017-11-14T19:46:28.664Z,19.07
2017-11-14T19:48:33.846Z,17.13
2017-11-14T19:50:38.313Z,19.67
2017-11-14T19:52:41.003Z,25.70
2017-11-14T19:54:43.657Z,22.57
2017-11-14T19:56:46.338Z,22.40
2017-11-14T19:58:48.981Z,19.50
2017-11-14T20:00:51.844Z,22.30
2017-11-14T20:02:55.316Z,23.47
2017-11-14T20:04:57.972Z,20.27
2017-11-14T20:07:00.656Z,21.60
2017-11-14T20:09:03.377Z,31.17
2017-11-14T20:11:06.057Z,25.27
2017-11-14T20:13:08.759Z,23.90
2017-11-14T20:15:11.504Z,23.63
2017-11-14T20:17:14.207Z,24.30
2017-11-14T20:19:16.877Z,21.30
2017-11-14T20:21:19.581Z,18.70
2017-11-14T20:23:22.404Z,21.50
2017-11-14T20:25:25.127Z,25.53
2017-11-14T20:27:27.835Z,20.80
2017-11-14T20:29:30.507Z,20.93
2017-11-14T20:31:33.950Z,28.63
2017-11-14T20:33:36.724Z,34.13
2017-11-14T20:35:39.482Z,22.70
2017-11-14T20:37:42.175Z,22.63
2017-11-14T20:39:44.811Z,27.63
2017-11-14T20:41:48.252Z,23.13
2017-11-14T20:43:50.917Z,21.00
2017-11-14T20:45:53.634Z,21.97
2017-11-14T20:47:56.298Z,20.23
2017-11-14T20:49:59.053Z,29.13
2017-11-14T20:52:01.725Z,21.30
2017-11-14T20:54:04.383Z,23.60
2017-11-14T20:56:07.061Z,21.97
2017-11-14T20:58:09.728Z,22.97
2017-11-14T21:00:12.391Z,38.17
2017-11-14T21:02:15.842Z,22.47
2017-11-14T21:04:18.871Z,29.40
2017-11-14T21:06:22.306Z,20.57
2017-11-14T21:08:25.011Z,23.87
2017-11-14T21:10:27.714Z,24.63
2017-11-14T21:12:31.240Z,23.17
2017-11-14T21:14:33.893Z,24.20
2017-11-14T21:16:36.594Z,22.00
2017-11-14T21:18:39.247Z,22.53
2017-11-14T21:20:41.903Z,26.50
2017-11-14T21:22:45.331Z,20.93
2017-11-14T21:24:47.985Z,28.37
2017-11-14T21:26:51.438Z,22.43
2017-11-14T21:28:54.101Z,30.20
2017-11-14T21:30:56.772Z,25.83
2017-11-14T21:32:59.440Z,33.10
2017-11-14T21:35:02.072Z,27.40
2017-11-14T21:37:04.775Z,28.27
2017-11-14T21:39:07.449Z,33.67
2017-11-14T21:41:10.097Z,30.07
2017-11-14T21:43:13.499Z,31.27
2017-11-14T21:45:16.151Z,26.80
2017-11-14T21:47:19.667Z,33.67
2017-11-14T21:49:22.376Z,32.77
2017-11-14T21:51:25.098Z,29.10
2017-11-14T21:53:27.746Z,29.70
2017-11-14T21:55:30.382Z,29.33
2017-11-14T21:57:33.231Z,26.83
2017-11-14T21:59:36.641Z,28.67
2017-11-14T22:01:39.347Z,30.90
2017-11-14T22:03:42.113Z,35.77
2017-11-14T22:05:44.765Z,42.17
2017-11-14T22:07:48.211Z,35.90
2017-11-14T22:09:50.829Z,32.30
2017-11-14T22:11:54.271Z,33.63
2017-11-14T22:13:56.911Z,32.30
2017-11-14T22:15:59.561Z,34.57
2017-11-14T22:18:02.987Z,34.63
2017-11-14T22:20:05.628Z,41.13
2017-11-14T22:22:09.066Z,29.60
2017-11-14T22:24:11.751Z,34.33
2017-11-14T22:26:14.426Z,35.17
2017-11-14T22:28:17.060Z,37.50
2017-11-14T22:30:19.720Z,45.43
2017-11-14T22:32:22.408Z,33.97
2017-11-14T22:34:25.086Z,47.83
2017-11-14T22:36:27.761Z,33.70
2017-11-14T22:38:30.426Z,35.83
2017-11-14T22:40:33.853Z,35.53
2017-11-14T22:42:36.529Z,46.33
2017-11-14T22:44:39.164Z,34.70
2017-11-14T22:46:42.570Z,42.10
2017-11-14T22:48:45.247Z,37.73
2017-11-14T22:50:47.945Z,42.00
2017-11-14T22:52:51.343Z,40.70
2017-11-14T22:54:54.485Z,47.57
2017-11-14T22:56:57.896Z,42.53
2017-11-14T22:59:00.550Z,38.27
2017-11-14T23:01:04.014Z,42.57
2017-11-14T23:03:06.693Z,39.13
2017-11-14T23:05:09.371Z,46.17
2017-11-14T23:07:12.038Z,42.40
2017-11-14T23:09:14.670Z,42.40
2017-11-14T23:11:17.336Z,43.23
2017-11-14T23:13:19.996Z,40.77
2017-11-14T23:15:23.452Z,40.07
2017-11-14T23:17:26.127Z,35.40
2017-11-14T23:19:28.841Z,46.53
2017-11-14T23:21:32.279Z,44.30
2017-11-14T23:23:34.922Z,42.20
2017-11-14T23:25:37.557Z,40.77
2017-11-14T23:27:40.225Z,38.90
2017-11-14T23:29:42.877Z,45.70
2017-11-14T23:31:45.554Z,50.57
2017-11-14T23:33:48.197Z,49.77
2017-11-14T23:35:50.832Z,57.83
2017-11-14T23:37:53.489Z,44.57
2017-11-14T23:39:56.127Z,46.60
2017-11-14T23:41:58.859Z,42.43
2017-11-14T23:44:01.509Z,48.73
2017-11-14T23:46:04.144Z,50.17
2017-11-14T23:48:06.792Z,47.50
2017-11-14T23:50:09.442Z,47.07
2017-11-14T23:52:12.190Z,49.13
2017-11-14T23:54:14.834Z,55.30
2017-11-14T23:56:18.335Z,53.40
2017-11-14T23:58:20.989Z,53.17
